TimeCST,TemperatureF,Dew PointF,Humidity,Sea Level PressureIn,VisibilityMPH,Wind Direction,Wind SpeedMPH,Gust SpeedMPH,PrecipitationIn,Events,Conditions,WindDirDegrees,DateUTC
12:15 AM,55.4,32.4,42,30.18,10.0,North,11.5,16.1,N/A,,Overcast,350,2013-11-12 06:15:00
12:35 AM,53.6,37.2,54,30.20,10.0,North,10.4,-,N/A,,Overcast,350,2013-11-12 06:35:00
12:55 AM,51.3,41.0,68,30.21,10.0,North,15.0,23.0,N/A,,Overcast,360,2013-11-12 06:55:00
1:15 AM,49.6,42.4,76,30.21,10.0,North,12.7,19.6,N/A,Rain,Light Rain,360,2013-11-12 07:15:00
1:35 AM,49.1,43.2,80,30.22,10.0,North,11.5,18.4,N/A,,Overcast,360,2013-11-12 07:35:00
1:55 AM,47.5,41.7,80,30.24,10.0,North,12.7,24.2,N/A,,Overcast,10,2013-11-12 07:55:00
2:15 AM,45.3,39.4,80,30.25,10.0,North,18.4,24.2,N/A,Rain,Light Rain,360,2013-11-12 08:15:00
2:35 AM,43.0,39.0,86,30.27,10.0,North,13.8,19.6,N/A,,Overcast,360,2013-11-12 08:35:00
2:55 AM,41.4,37.8,87,30.28,7.0,North,15.0,21.9,0.01,Rain,Light Rain,360,2013-11-12 08:55:00
3:15 AM,40.1,37.4,90,30.29,10.0,North,12.7,18.4,N/A,,Overcast,10,2013-11-12 09:15:00
3:35 AM,39.4,36.7,90,30.31,5.0,North,16.1,21.9,0.01,Rain,Light Rain,360,2013-11-12 09:35:00
3:55 AM,37.4,36.5,97,30.33,7.0,North,15.0,24.2,0.01,,Light Drizzle,360,2013-11-12 09:55:00
4:15 AM,36.3,35.8,98,30.35,5.0,North,9.2,18.4,0.02,Rain,Light Rain,360,2013-11-12 10:15:00
4:35 AM,35.6,34.5,96,30.36,10.0,North,16.1,20.7,0.02,,Light Drizzle,360,2013-11-12 10:35:00
4:55 AM,34.2,33.6,98,30.38,4.0,North,12.7,19.6,0.02,Rain,Light Rain,360,2013-11-12 10:55:00
5:15 AM,32.7,32.7,100,30.39,2.5,North,11.5,21.9,N/A,Snow,Light Snow,360,2013-11-12 11:15:00
5:35 AM,32.4,32.4,100,30.40,4.0,North,13.8,18.4,N/A,Snow,Light Snow,360,2013-11-12 11:35:00
5:55 AM,32.0,32.0,100,30.41,2.5,North,11.5,19.6,N/A,Snow,Light Snow,10,2013-11-12 11:55:00
6:15 AM,32.0,31.3,97,30.43,5.0,NNE,9.2,17.3,N/A,Snow,Light Snow,20,2013-11-12 12:15:00
6:35 AM,32.0,29.7,91,30.44,7.0,NNE,11.5,18.4,N/A,Snow,Light Snow,20,2013-11-12 12:35:00
6:55 AM,31.8,29.3,90,30.46,10.0,NNE,5.8,-,N/A,,Overcast,20,2013-11-12 12:55:00
7:15 AM,32.0,29.7,91,30.47,10.0,North,9.2,-,N/A,,Overcast,10,2013-11-12 13:15:00
7:35 AM,32.0,27.5,83,30.49,10.0,North,12.7,24.2,N/A,,Overcast,360,2013-11-12 13:35:00
7:55 AM,32.0,26.2,79,30.49,10.0,North,11.5,21.9,N/A,,Overcast,10,2013-11-12 13:55:00
8:15 AM,32.0,25.7,78,30.50,10.0,North,13.8,21.9,N/A,,Overcast,10,2013-11-12 14:15:00
8:35 AM,32.0,25.5,77,30.51,10.0,North,11.5,23.0,N/A,,Mostly Cloudy,10,2013-11-12 14:35:00
8:55 AM,32.4,25.0,74,30.51,10.0,North,11.5,18.4,N/A,,Mostly Cloudy,10,2013-11-12 14:55:00
9:15 AM,32.9,24.1,70,30.53,10.0,North,12.7,18.4,N/A,,Scattered Clouds,10,2013-11-12 15:15:00
9:35 AM,34.0,23.9,67,30.54,10.0,North,13.8,19.6,0.01,,Scattered Clouds,10,2013-11-12 15:35:00
9:55 AM,34.9,24.8,67,30.54,10.0,North,11.5,21.9,0.01,,Mostly Cloudy,360,2013-11-12 15:55:00
10:15 AM,34.5,23.7,65,30.54,10.0,NNE,13.8,23.0,N/A,,Scattered Clouds,20,2013-11-12 16:15:00
10:35 AM,35.8,22.5,58,30.54,10.0,NE,8.1,20.7,N/A,,Clear,40,2013-11-12 16:35:00
10:55 AM,36.9,22.3,56,30.54,10.0,North,16.1,20.7,N/A,,Clear,360,2013-11-12 16:55:00
11:15 AM,37.4,21.2,52,30.54,10.0,North,13.8,20.7,N/A,,Clear,10,2013-11-12 17:15:00
11:35 AM,37.9,21.4,51,30.53,10.0,North,13.8,20.7,N/A,,Clear,360,2013-11-12 17:35:00
11:55 AM,38.3,20.3,48,30.52,10.0,NNE,10.4,-,N/A,,Clear,20,2013-11-12 17:55:00
12:15 PM,39.0,18.1,43,30.52,10.0,North,12.7,21.9,N/A,,Clear,10,2013-11-12 18:15:00
12:35 PM,39.4,18.0,42,30.52,10.0,North,12.7,21.9,N/A,,Clear,360,2013-11-12 18:35:00
12:55 PM,39.6,17.1,40,30.52,10.0,North,13.8,18.4,N/A,,Clear,360,2013-11-12 18:55:00
1:15 PM,40.1,15.6,37,30.53,10.0,NNE,12.7,21.9,N/A,,Clear,20,2013-11-12 19:15:00
1:35 PM,40.1,15.4,37,30.53,10.0,North,9.2,21.9,N/A,,Clear,350,2013-11-12 19:35:00
1:55 PM,40.5,15.4,36,30.54,10.0,North,16.1,-,N/A,,Clear,350,2013-11-12 19:55:00
2:15 PM,40.3,14.4,35,30.53,10.0,North,9.2,17.3,N/A,,Clear,10,2013-11-12 20:15:00
2:35 PM,40.3,14.5,35,30.54,10.0,North,12.7,21.9,N/A,,Clear,360,2013-11-12 20:35:00
2:55 PM,39.7,13.3,34,30.54,10.0,North,12.7,23.0,N/A,,Clear,350,2013-11-12 20:55:00
3:15 PM,39.4,12.9,34,30.55,10.0,North,11.5,19.6,N/A,,Clear,360,2013-11-12 21:15:00
3:35 PM,39.0,12.7,34,30.55,10.0,North,13.8,19.6,N/A,,Clear,10,2013-11-12 21:35:00
3:55 PM,38.1,11.8,34,30.56,10.0,North,8.1,19.6,N/A,,Clear,10,2013-11-12 21:55:00
4:15 PM,37.2,11.8,35,30.56,10.0,NNE,5.8,-,N/A,,Clear,30,2013-11-12 22:15:00
4:35 PM,36.0,12.2,38,30.57,10.0,North,6.9,-,N/A,,Clear,10,2013-11-12 22:35:00
5:15 PM,33.4,14.5,46,30.58,10.0,Calm,Calm,-,N/A,,Clear,0,2013-11-12 23:15:00
5:35 PM,32.9,15.1,48,30.58,10.0,NNE,3.5,-,N/A,,Clear,20,2013-11-12 23:35:00
5:55 PM,32.7,15.1,48,30.59,10.0,Calm,Calm,-,N/A,,Clear,0,2013-11-12 23:55:00
6:35 PM,32.0,15.4,51,30.59,10.0,NNE,4.6,-,N/A,,Clear,20,2013-11-13 00:35:00
6:55 PM,32.0,15.6,51,30.60,10.0,NNE,4.6,-,N/A,,Clear,20,2013-11-13 00:55:00
7:15 PM,31.8,15.8,52,30.60,10.0,NNE,3.5,-,N/A,,Clear,20,2013-11-13 01:15:00
7:35 PM,31.6,16.0,52,30.60,10.0,Calm,Calm,-,N/A,,Clear,0,2013-11-13 01:35:00
7:55 PM,30.7,16.9,56,30.61,10.0,Calm,Calm,-,N/A,,Clear,0,2013-11-13 01:55:00
8:15 PM,30.0,17.2,59,30.61,10.0,Calm,Calm,-,N/A,,Clear,0,2013-11-13 02:15:00
8:35 PM,29.8,17.2,59,30.62,10.0,Calm,Calm,-,N/A,,Clear,0,2013-11-13 02:35:00
8:55 PM,29.3,17.4,61,30.63,10.0,Calm,Calm,-,N/A,,Clear,0,2013-11-13 02:55:00
9:15 PM,29.8,16.9,59,30.63,10.0,Calm,Calm,-,N/A,,Clear,0,2013-11-13 03:15:00
9:35 PM,29.3,17.1,60,30.63,10.0,Calm,Calm,-,N/A,,Clear,0,2013-11-13 03:35:00
9:55 PM,28.8,17.4,63,30.63,10.0,Calm,Calm,-,N/A,,Clear,0,2013-11-13 03:55:00
10:15 PM,28.8,17.4,63,30.63,10.0,NNE,3.5,-,N/A,,Clear,20,2013-11-13 04:15:00
10:35 PM,28.2,17.6,64,30.63,10.0,NNE,3.5,-,N/A,,Clear,20,2013-11-13 04:35:00
10:55 PM,27.7,17.8,66,30.62,10.0,Calm,Calm,-,N/A,,Clear,0,2013-11-13 04:55:00
11:15 PM,27.0,18.1,69,30.62,10.0,North,3.5,-,N/A,,Clear,360,2013-11-13 05:15:00
11:35 PM,26.2,18.5,73,30.62,10.0,Calm,Calm,-,N/A,,Clear,0,2013-11-13 05:35:00
11:55 PM,26.1,18.3,73,30.62,10.0,North,4.6,-,N/A,,Clear,10,2013-11-13 05:55:00